Time;durP1;ratioP1;P1;durP2;ratioP2;P2;SDS_P1;SDS_P2;PMS_P1;PMS_P2;Temp;Humidity;BMP_temperature;BMP_pressure;BME280_temperature;BME280_humidity;BME280_pressure;Samples;Min_cycle;Max_cycle;Signal;HPM_P1;HPM_P2
2021/07/17 00:01:44;;;;;;;18.17;14.20;;;18.00;99.90;;;;;;6302414;22;20172;-87
2021/07/17 00:04:09;;;;;;;20.53;16.40;;;18.00;99.90;;;;;;6301152;22;20168;-86
2021/07/17 00:09:16;;;;;;;22.70;17.50;;;17.90;99.90;;;;;;6327480;22;20206;-86
2021/07/17 00:11:41;;;;;;;21.83;16.87;;;17.90;99.90;;;;;;6300152;22;20873;-87
2021/07/17 00:16:45;;;;;;;24.73;18.30;;;17.80;99.90;;;;;;6327750;22;20157;-87
2021/07/17 00:19:11;;;;;;;20.60;18.00;;;17.80;99.90;;;;;;6299664;22;20425;-87
2021/07/17 00:21:37;;;;;;;22.53;18.00;;;17.70;99.90;;;;;;6300588;22;20635;-86
2021/07/17 00:24:03;;;;;;;23.47;19.10;;;17.70;99.90;;;;;;6302150;22;20403;-87
2021/07/17 00:26:46;;;;;;;23.63;18.50;;;17.60;99.90;;;;;;6275324;22;20176;-86
2021/07/17 00:29:12;;;;;;;23.47;19.20;;;17.60;99.90;;;;;;6300060;22;20452;-88
2021/07/17 00:31:38;;;;;;;26.73;19.10;;;17.50;99.90;;;;;;6300957;22;20391;-88
2021/07/17 00:34:04;;;;;;;25.60;18.73;;;17.50;99.90;;;;;;6301591;22;20678;-88
2021/07/17 00:36:36;;;;;;;24.70;19.43;;;17.50;99.90;;;;;;6301923;22;20165;-89
2021/07/17 00:39:02;;;;;;;27.43;20.03;;;17.50;99.90;;;;;;6300921;22;20872;-89
2021/07/17 00:41:28;;;;;;;21.40;18.07;;;17.50;99.90;;;;;;6300231;22;20387;-88
2021/07/17 00:43:54;;;;;;;21.57;18.60;;;17.50;99.90;;;;;;6300830;22;20406;-88
2021/07/17 00:46:20;;;;;;;30.87;19.63;;;17.50;99.90;;;;;;6299593;22;20548;-88
2021/07/17 00:48:46;;;;;;;23.97;20.13;;;17.50;99.90;;;;;;6299240;22;20688;-88
2021/07/17 00:51:14;;;;;;;24.67;18.40;;;17.50;99.90;;;;;;6302136;22;21539;-87
2021/07/17 00:53:40;;;;;;;23.53;19.23;;;17.50;99.90;;;;;;6300909;22;20431;-88
2021/07/17 00:56:13;;;;;;;21.50;18.00;;;17.50;99.90;;;;;;6301310;22;20391;-88
2021/07/17 00:58:42;;;;;;;21.77;18.73;;;17.50;99.90;;;;;;6301959;22;20395;-88
2021/07/17 01:01:10;;;;;;;23.07;18.83;;;17.60;99.90;;;;;;6301418;22;20421;-87
2021/07/17 01:03:37;;;;;;;21.40;17.50;;;17.60;99.90;;;;;;6301181;22;20464;-87
2021/07/17 01:06:03;;;;;;;20.27;16.87;;;17.50;99.90;;;;;;6299799;22;20383;-88
2021/07/17 01:08:38;;;;;;;24.53;18.47;;;17.50;99.90;;;;;;6298742;22;20391;-88
2021/07/17 01:11:04;;;;;;;22.73;17.57;;;17.60;99.90;;;;;;6299911;22;20880;-88
2021/07/17 01:13:38;;;;;;;22.30;19.20;;;17.60;99.90;;;;;;6322437;22;20391;-89
2021/07/17 01:16:04;;;;;;;24.60;17.90;;;17.70;99.90;;;;;;6300198;22;20383;-88
2021/07/17 01:18:30;;;;;;;21.53;18.23;;;17.60;99.90;;;;;;6300760;22;20869;-88
2021/07/17 01:20:57;;;;;;;19.83;16.87;;;17.70;99.90;;;;;;6324352;22;20450;-89
2021/07/17 01:23:27;;;;;;;19.83;17.13;;;17.70;99.90;;;;;;6299954;22;20395;-89
2021/07/17 01:25:53;;;;;;;19.63;17.53;;;17.60;99.90;;;;;;6300537;22;20407;-90
2021/07/17 01:28:19;;;;;;;22.97;18.87;;;17.60;99.90;;;;;;6298122;22;20900;-90
2021/07/17 01:30:52;;;;;;;22.53;18.03;;;17.60;99.90;;;;;;6329377;22;20234;-89
2021/07/17 01:33:20;;;;;;;21.40;18.20;;;17.60;99.90;;;;;;6301449;22;20847;-90
2021/07/17 01:35:48;;;;;;;23.23;18.80;;;17.60;99.90;;;;;;6297869;22;20403;-90
2021/07/17 01:38:14;;;;;;;21.80;18.07;;;17.70;99.90;;;;;;6299879;22;20903;-90
2021/07/17 01:40:41;;;;;;;22.63;17.93;;;17.60;99.90;;;;;;6300263;22;20392;-90
2021/07/17 01:43:10;;;;;;;21.23;18.30;;;17.60;99.90;;;;;;6299465;22;20164;-89
2021/07/17 01:45:38;;;;;;;28.10;18.43;;;17.60;99.90;;;;;;6301555;22;20770;-89
2021/07/17 01:48:06;;;;;;;23.00;18.87;;;17.50;99.90;;;;;;6298743;22;20406;-87
2021/07/17 01:50:32;;;;;;;25.47;19.80;;;17.50;99.90;;;;;;6273822;22;20395;-88
2021/07/17 01:52:59;;;;;;;22.10;18.00;;;17.40;99.90;;;;;;6300192;22;20399;-88
2021/07/17 01:55:38;;;;;;;24.90;19.63;;;17.40;99.90;;;;;;6299824;22;20438;-88
2021/07/17 01:58:04;;;;;;;23.17;18.60;;;17.40;99.90;;;;;;6299730;22;20397;-88
2021/07/17 02:00:31;;;;;;;24.27;17.70;;;17.40;99.90;;;;;;6300892;22;20444;-88
2021/07/17 02:02:58;;;;;;;21.00;18.20;;;17.40;99.90;;;;;;6326111;22;20419;-88
2021/07/17 02:05:24;;;;;;;26.67;19.53;;;17.50;99.90;;;;;;6300596;22;20387;-88
2021/07/17 02:07:51;;;;;;;23.60;18.30;;;17.50;99.90;;;;;;6322521;22;20742;-88
2021/07/17 02:10:18;;;;;;;20.97;17.30;;;17.50;99.90;;;;;;6298938;22;20426;-88
2021/07/17 02:13:06;;;;;;;19.53;16.80;;;17.50;99.90;;;;;;6299391;22;20390;-88
2021/07/17 02:15:40;;;;;;;23.93;18.20;;;17.60;99.90;;;;;;6300514;22;20463;-88
2021/07/17 02:18:06;;;;;;;23.30;19.27;;;17.50;99.90;;;;;;6326528;22;20394;-88
2021/07/17 02:20:33;;;;;;;21.53;17.77;;;17.50;99.90;;;;;;6301963;22;20395;-88
2021/07/17 02:22:59;;;;;;;20.70;18.07;;;17.40;99.90;;;;;;6295755;22;20395;-88
2021/07/17 02:25:26;;;;;;;25.00;19.10;;;17.40;99.90;;;;;;6300763;22;20407;-87
2021/07/17 02:27:52;;;;;;;27.70;19.53;;;17.40;99.90;;;;;;6327178;22;20387;-87
2021/07/17 02:30:18;;;;;;;26.77;19.97;;;17.30;99.90;;;;;;6298856;22;20916;-87
2021/07/17 02:32:44;;;;;;;22.80;19.20;;;17.30;99.90;;;;;;6299899;22;20873;-87
2021/07/17 02:35:10;;;;;;;24.50;19.70;;;17.20;99.90;;;;;;6323622;22;20465;-87
2021/07/17 02:37:37;;;;;;;22.13;19.30;;;17.20;99.90;;;;;;6299368;22;20164;-87
2021/07/17 02:40:04;;;;;;;27.77;19.13;;;17.20;99.90;;;;;;6300210;22;20403;-89
2021/07/17 02:42:30;;;;;;;24.80;18.67;;;17.30;99.90;;;;;;6300556;22;20549;-88
2021/07/17 02:44:56;;;;;;;24.83;18.80;;;17.30;99.90;;;;;;6299661;22;20407;-88
2021/07/17 02:47:22;;;;;;;26.00;18.77;;;17.20;99.90;;;;;;6300712;22;20191;-87
2021/07/17 02:49:48;;;;;;;24.73;19.87;;;17.20;99.90;;;;;;6299584;22;20945;-88
2021/07/17 02:52:13;;;;;;;23.63;18.07;;;17.20;99.90;;;;;;6272546;22;20699;-87
2021/07/17 02:54:39;;;;;;;25.43;19.90;;;17.20;99.90;;;;;;6300144;22;20474;-87
2021/07/17 02:57:05;;;;;;;27.93;19.10;;;17.20;99.90;;;;;;6300841;22;20185;-87
2021/07/17 02:59:32;;;;;;;21.23;18.20;;;17.10;99.90;;;;;;6300050;22;20173;-88
2021/07/17 03:01:59;;;;;;;25.77;20.47;;;17.20;99.90;;;;;;6298370;22;20835;-88
2021/07/17 03:04:25;;;;;;;25.93;20.10;;;17.20;99.90;;;;;;6326287;22;20251;-88
2021/07/17 03:06:51;;;;;;;25.20;18.67;;;17.20;99.90;;;;;;6300753;22;20472;-89
2021/07/17 03:09:24;;;;;;;21.80;17.70;;;17.10;99.90;;;;;;6301623;22;20199;-89
2021/07/17 03:11:50;;;;;;;24.47;18.63;;;17.20;99.90;;;;;;6302040;22;20165;-89
2021/07/17 03:14:16;;;;;;;26.57;20.40;;;17.20;99.90;;;;;;6302032;22;20430;-88
2021/07/17 03:16:42;;;;;;;25.13;17.77;;;17.10;99.90;;;;;;6301597;22;20626;-89
2021/07/17 03:19:09;;;;;;;23.17;19.23;;;17.10;99.90;;;;;;6276168;22;20176;-88
2021/07/17 03:21:35;;;;;;;28.50;18.70;;;17.10;99.90;;;;;;6302225;22;20395;-88
2021/07/17 03:24:01;;;;;;;22.70;18.60;;;17.10;99.90;;;;;;6304162;22;20401;-89
2021/07/17 03:26:27;;;;;;;22.70;19.43;;;17.00;99.90;;;;;;6302122;22;20493;-88
2021/07/17 03:28:54;;;;;;;21.80;17.83;;;17.00;99.90;;;;;;6304295;22;20171;-88
2021/07/17 03:31:27;;;;;;;22.43;17.77;;;17.00;99.90;;;;;;6301363;22;20773;-88
2021/07/17 03:33:54;;;;;;;23.83;19.37;;;17.00;99.90;;;;;;6299980;22;20430;-88
2021/07/17 03:36:20;;;;;;;26.67;18.80;;;17.00;99.90;;;;;;6300678;22;20866;-88
2021/07/17 03:38:46;;;;;;;24.30;18.63;;;17.00;99.90;;;;;;6300898;22;20443;-88
2021/07/17 03:41:12;;;;;;;24.13;18.97;;;16.90;99.90;;;;;;6301979;22;20506;-87
2021/07/17 03:43:38;;;;;;;25.00;18.93;;;17.00;99.90;;;;;;6302421;22;20164;-88
2021/07/17 03:46:03;;;;;;;26.63;19.37;;;17.00;99.90;;;;;;6298166;22;20171;-88
2021/07/17 03:48:29;;;;;;;22.80;19.17;;;16.90;99.90;;;;;;6300640;22;20203;-88
2021/07/17 03:50:55;;;;;;;22.90;19.27;;;16.90;99.90;;;;;;6300454;22;20169;-88
2021/07/17 03:53:20;;;;;;;28.40;18.60;;;16.90;99.90;;;;;;6300810;22;20908;-88
2021/07/17 03:55:46;;;;;;;25.03;19.43;;;16.90;99.90;;;;;;6300491;22;20192;-88
2021/07/17 03:58:12;;;;;;;25.97;19.97;;;17.00;99.90;;;;;;6300062;22;20531;-88
2021/07/17 04:00:38;;;;;;;26.40;20.10;;;17.00;99.90;;;;;;6299985;22;20165;-89
2021/07/17 04:03:04;;;;;;;25.93;18.90;;;16.90;99.90;;;;;;6299562;22;20161;-89
2021/07/17 04:05:32;;;;;;;28.33;20.00;;;16.90;99.90;;;;;;6299769;22;20436;-89
2021/07/17 04:07:58;;;;;;;26.40;19.40;;;16.80;99.90;;;;;;6299153;22;20484;-88
2021/07/17 04:10:24;;;;;;;26.80;19.20;;;16.80;99.90;;;;;;6298208;22;20427;-89
2021/07/17 04:12:50;;;;;;;23.07;19.47;;;16.80;99.90;;;;;;6301270;22;20164;-89
2021/07/17 04:15:15;;;;;;;29.23;19.63;;;16.80;99.90;;;;;;6299722;22;20184;-89
2021/07/17 04:17:42;;;;;;;25.23;19.37;;;16.80;99.90;;;;;;6298331;22;20153;-88
2021/07/17 04:20:09;;;;;;;24.00;18.60;;;16.90;99.90;;;;;;6300431;22;20526;-88
2021/07/17 04:22:35;;;;;;;24.27;18.43;;;16.90;99.90;;;;;;6297495;22;20391;-87
2021/07/17 04:25:11;;;;;;;24.87;19.80;;;16.90;99.90;;;;;;6315816;22;20442;-87
2021/07/17 04:27:38;;;;;;;24.80;19.80;;;16.90;99.90;;;;;;6299410;22;20395;-87
2021/07/17 04:30:05;;;;;;;23.80;19.33;;;16.90;99.90;;;;;;6327604;22;20888;-86
2021/07/17 04:32:31;;;;;;;22.40;18.77;;;16.80;99.90;;;;;;6300360;22;20448;-88
2021/07/17 04:34:57;;;;;;;22.57;18.27;;;16.80;99.90;;;;;;6299922;22;20786;-89
2021/07/17 04:37:23;;;;;;;21.07;18.60;;;16.80;99.90;;;;;;6298018;22;20172;-90
2021/07/17 04:39:48;;;;;;;22.97;18.33;;;16.80;99.90;;;;;;6300385;22;20287;-88
2021/07/17 04:42:23;;;;;;;23.47;18.83;;;16.80;99.90;;;;;;6299729;22;20157;-87
2021/07/17 04:44:48;;;;;;;22.90;19.20;;;16.80;99.90;;;;;;6300627;22;20168;-87
2021/07/17 04:47:14;;;;;;;30.63;21.10;;;16.80;99.90;;;;;;6298653;22;20861;-88
2021/07/17 04:49:40;;;;;;;27.03;20.70;;;16.80;99.90;;;;;;6327950;22;20195;-88
2021/07/17 04:52:06;;;;;;;24.80;19.20;;;16.80;99.90;;;;;;6301985;22;20949;-88
2021/07/17 04:54:32;;;;;;;22.80;18.53;;;16.70;99.90;;;;;;6300908;22;20185;-88
2021/07/17 04:56:58;;;;;;;21.43;17.80;;;16.70;99.90;;;;;;6298983;22;20448;-88
2021/07/17 04:59:23;;;;;;;25.53;19.00;;;16.80;99.90;;;;;;6299189;22;20164;-88
2021/07/17 05:01:52;;;;;;;23.53;19.73;;;16.90;99.90;;;;;;6301043;22;20165;-87
2021/07/17 05:04:18;;;;;;;22.87;19.10;;;16.90;99.90;;;;;;6300937;22;20652;-88
2021/07/17 05:06:44;;;;;;;21.90;17.73;;;16.90;99.90;;;;;;6300733;22;20395;-88
2021/07/17 05:09:16;;;;;;;23.13;18.80;;;17.00;99.90;;;;;;6300728;22;20153;-87
2021/07/17 05:11:42;;;;;;;24.97;19.17;;;17.10;99.90;;;;;;6299889;22;20739;-87
2021/07/17 05:14:08;;;;;;;24.90;20.20;;;17.10;99.90;;;;;;6300629;22;20435;-88
2021/07/17 05:16:38;;;;;;;25.03;19.20;;;17.20;99.90;;;;;;6300769;22;20160;-87
2021/07/17 05:19:04;;;;;;;26.33;17.70;;;17.00;99.90;;;;;;6299775;22;20488;-87
2021/07/17 05:21:37;;;;;;;23.30;19.63;;;16.90;99.90;;;;;;6300881;22;20399;-88
2021/07/17 05:24:04;;;;;;;26.10;20.10;;;16.80;99.90;;;;;;6300255;22;20386;-88
2021/07/17 05:26:30;;;;;;;26.83;20.53;;;16.70;99.90;;;;;;6300418;22;20771;-88
2021/07/17 05:28:56;;;;;;;29.40;20.70;;;16.60;99.90;;;;;;6299978;22;20399;-89
2021/07/17 05:31:26;;;;;;;28.00;20.57;;;16.60;99.90;;;;;;6301197;22;20386;-89
2021/07/17 05:33:52;;;;;;;26.30;21.30;;;16.70;99.90;;;;;;6299571;22;20514;-88
2021/07/17 05:36:17;;;;;;;33.27;22.27;;;16.60;99.90;;;;;;6298701;22;20404;-88
2021/07/17 05:38:47;;;;;;;31.77;22.30;;;16.50;99.90;;;;;;6299794;22;20157;-88
2021/07/17 05:41:13;;;;;;;32.27;24.00;;;16.50;99.90;;;;;;6327374;22;20172;-88
2021/07/17 05:43:39;;;;;;;35.10;24.77;;;16.40;99.90;;;;;;6300938;22;20395;-89
2021/07/17 05:46:10;;;;;;;34.37;24.93;;;16.50;99.90;;;;;;6327632;22;20187;-88
2021/07/17 05:48:36;;;;;;;33.23;23.73;;;16.40;99.90;;;;;;6299215;22;20448;-89
2021/07/17 05:51:02;;;;;;;29.17;22.37;;;16.50;99.90;;;;;;6299048;22;20697;-88
2021/07/17 05:53:27;;;;;;;32.63;23.10;;;16.60;99.90;;;;;;6299369;22;20402;-89
2021/07/17 05:55:53;;;;;;;29.60;21.40;;;16.70;99.90;;;;;;6299205;22;20165;-88
2021/07/17 05:58:20;;;;;;;33.43;22.23;;;16.70;99.90;;;;;;6301480;22;20269;-88
2021/07/17 06:00:48;;;;;;;28.37;22.57;;;16.80;99.90;;;;;;6327356;22;21168;-87
2021/07/17 06:03:13;;;;;;;28.60;21.00;;;16.70;99.90;;;;;;6299420;22;20395;-88
2021/07/17 06:05:39;;;;;;;30.00;21.83;;;16.70;99.90;;;;;;6298613;22;20244;-88
2021/07/17 06:08:13;;;;;;;24.47;19.47;;;16.80;99.90;;;;;;6299054;22;20157;-88
2021/07/17 06:10:39;;;;;;;27.50;20.87;;;16.90;99.90;;;;;;6275383;22;20522;-87
2021/07/17 06:13:06;;;;;;;27.03;21.23;;;17.00;99.90;;;;;;6298392;22;20896;-92
2021/07/17 06:15:31;;;;;;;25.60;20.67;;;17.10;99.90;;;;;;6294759;22;20220;-89
2021/07/17 06:18:09;;;;;;;27.57;19.27;;;17.20;99.90;;;;;;6299612;22;20414;-89
2021/07/17 06:20:35;;;;;;;25.77;21.17;;;17.40;99.90;;;;;;6298786;22;20157;-91
2021/07/17 06:23:02;;;;;;;27.97;19.70;;;17.40;99.90;;;;;;6321952;22;20444;-90
2021/07/17 06:25:28;;;;;;;26.93;21.80;;;17.40;99.90;;;;;;6293337;22;20892;-95
2021/07/17 06:27:53;;;;;;;26.57;20.50;;;17.40;99.90;;;;;;6297775;22;20574;-93
2021/07/17 06:30:19;;;;;;;30.33;20.77;;;17.30;99.90;;;;;;6296814;22;20649;-95
2021/07/17 06:32:49;;;;;;;26.80;19.93;;;17.30;99.90;;;;;;6296929;22;20449;-95
2021/07/17 06:35:14;;;;;;;24.93;20.03;;;17.30;99.90;;;;;;6296575;22;20439;-91
2021/07/17 06:37:46;;;;;;;26.20;20.53;;;17.40;99.90;;;;;;6300968;22;20478;-94
2021/07/17 06:40:18;;;;;;;23.53;18.47;;;17.30;99.90;;;;;;6305664;22;20161;-96
2021/07/17 06:43:04;;;;;;;29.87;20.30;;;17.40;99.90;;;;;;6324114;22;20970;-92
2021/07/17 06:45:32;;;;;;;30.90;21.50;;;17.70;99.90;;;;;;6302353;22;20403;-91
2021/07/17 06:47:58;;;;;;;26.63;19.10;;;17.80;99.90;;;;;;6296656;22;20207;-89
2021/07/17 06:50:24;;;;;;;27.60;20.87;;;17.90;99.90;;;;;;6320330;22;20410;-88
2021/07/17 06:52:50;;;;;;;22.77;18.77;;;17.90;99.90;;;;;;6316143;22;20283;-87
2021/07/17 06:55:16;;;;;;;26.90;19.13;;;17.90;99.90;;;;;;6322740;22;20591;-89
2021/07/17 06:57:45;;;;;;;23.40;19.93;;;17.80;99.90;;;;;;6293786;22;20606;-89
2021/07/17 07:00:14;;;;;;;23.53;20.77;;;17.50;99.90;;;;;;6290990;22;20674;-89
2021/07/17 07:02:40;;;;;;;27.73;20.83;;;17.50;99.90;;;;;;6319178;22;20487;-88
2021/07/17 07:05:07;;;;;;;25.47;20.23;;;17.50;99.90;;;;;;6318473;22;20395;-86
2021/07/17 07:07:34;;;;;;;28.50;21.53;;;17.40;99.90;;;;;;6291813;22;20994;-88
2021/07/17 07:10:00;;;;;;;25.47;20.83;;;17.30;99.90;;;;;;6292153;22;20403;-88
2021/07/17 07:12:26;;;;;;;25.77;20.13;;;17.40;99.90;;;;;;6292582;22;20444;-90
2021/07/17 07:14:51;;;;;;;30.67;19.80;;;17.60;99.90;;;;;;6291190;22;20818;-88
2021/07/17 07:17:17;;;;;;;34.70;22.00;;;17.60;99.90;;;;;;6319506;22;20149;-89
2021/07/17 07:19:43;;;;;;;29.23;21.10;;;17.40;99.90;;;;;;6320732;22;20157;-93
2021/07/17 07:22:09;;;;;;;25.77;21.50;;;17.40;99.90;;;;;;6295590;22;20171;-91
2021/07/17 07:24:35;;;;;;;22.77;19.83;;;17.40;99.90;;;;;;6288600;22;20161;-90
2021/07/17 07:27:04;;;;;;;27.20;19.87;;;17.60;99.90;;;;;;6322765;22;20161;-93
2021/07/17 07:29:29;;;;;;;24.90;20.40;;;17.80;99.90;;;;;;6292887;22;20733;-90
2021/07/17 07:31:55;;;;;;;25.83;20.70;;;17.90;99.90;;;;;;6291328;22;21050;-90
2021/07/17 07:34:21;;;;;;;23.13;19.83;;;17.80;99.90;;;;;;6318693;22;20558;-94
2021/07/17 07:36:50;;;;;;;21.03;18.23;;;17.90;99.90;;;;;;6318889;22;20241;-93
2021/07/17 07:39:22;;;;;;;20.33;18.07;;;18.00;99.90;;;;;;6320390;22;20153;-89
2021/07/17 07:41:48;;;;;;;20.67;17.60;;;18.00;99.90;;;;;;6291819;22;20402;-89
2021/07/17 07:44:14;;;;;;;21.40;19.10;;;17.80;99.90;;;;;;6292646;22;20406;-89
2021/07/17 07:46:56;;;;;;;21.37;18.20;;;17.70;99.90;;;;;;6294807;22;20876;-90
2021/07/17 07:49:35;;;;;;;21.50;17.67;;;17.80;99.90;;;;;;6293246;22;20633;-90
2021/07/17 07:52:01;;;;;;;21.70;18.37;;;17.70;99.90;;;;;;6291204;22;20394;-91
2021/07/17 07:54:27;;;;;;;25.47;20.00;;;17.70;99.90;;;;;;6296969;22;20938;-91
2021/07/17 07:56:55;;;;;;;20.67;18.43;;;17.90;99.90;;;;;;6297681;22;20199;-90
2021/07/17 07:59:20;;;;;;;27.63;18.10;;;18.30;99.90;;;;;;6297499;22;20552;-93
2021/07/17 08:01:46;;;;;;;20.13;17.03;;;18.80;99.90;;;;;;6299455;22;20432;-93
2021/07/17 08:04:12;;;;;;;20.07;16.53;;;19.00;99.90;;;;;;6298275;22;20222;-93
2021/07/17 08:06:38;;;;;;;20.23;17.20;;;19.10;99.90;;;;;;6297416;22;20537;-92
2021/07/17 08:09:04;;;;;;;21.50;17.07;;;19.00;99.90;;;;;;6296929;22;20252;-92
2021/07/17 08:11:29;;;;;;;20.13;18.00;;;19.00;99.90;;;;;;6296989;22;20160;-92
2021/07/17 08:13:56;;;;;;;20.20;17.57;;;18.80;99.90;;;;;;6297610;22;20438;-93
2021/07/17 08:16:22;;;;;;;21.07;17.90;;;18.50;99.90;;;;;;6298644;22;20164;-93
2021/07/17 08:18:48;;;;;;;19.63;17.40;;;18.50;99.90;;;;;;6302666;22;20555;-93
2021/07/17 08:21:14;;;;;;;21.70;18.10;;;18.60;99.90;;;;;;6296793;22;20169;-91
2021/07/17 08:23:40;;;;;;;20.20;17.23;;;18.60;99.90;;;;;;6294370;22;20908;-88
2021/07/17 08:26:06;;;;;;;20.77;17.10;;;18.60;99.90;;;;;;6295471;22;20187;-86
2021/07/17 08:28:31;;;;;;;21.03;15.93;;;18.60;99.90;;;;;;6292916;22;21169;-91
2021/07/17 08:30:57;;;;;;;17.13;15.27;;;18.70;99.90;;;;;;6293672;22;20164;-89
2021/07/17 08:33:23;;;;;;;19.93;16.80;;;19.30;99.90;;;;;;6292650;22;20164;-89
2021/07/17 08:35:48;;;;;;;19.27;15.30;;;19.40;99.90;;;;;;6293211;22;20281;-89
2021/07/17 08:38:14;;;;;;;19.57;15.10;;;19.80;99.90;;;;;;6291657;22;20594;-88
2021/07/17 08:40:42;;;;;;;17.83;15.93;;;19.70;99.90;;;;;;6294306;22;20196;-89
2021/07/17 08:43:08;;;;;;;18.13;15.03;;;19.70;99.90;;;;;;6291126;22;20553;-88
2021/07/17 08:45:39;;;;;;;18.03;14.00;;;19.90;99.90;;;;;;6316296;22;20412;-88
2021/07/17 08:48:10;;;;;;;15.87;13.90;;;20.20;99.90;;;;;;6321136;22;20858;-88
2021/07/17 08:50:37;;;;;;;18.73;14.90;;;20.50;99.90;;;;;;6292955;22;20407;-87
2021/07/17 08:53:04;;;;;;;17.67;15.30;;;20.50;99.90;;;;;;6293076;22;20884;-88
2021/07/17 08:55:30;;;;;;;18.77;15.70;;;20.20;99.90;;;;;;6293482;22;20447;-88
2021/07/17 08:58:05;;;;;;;20.73;15.93;;;19.70;99.90;;;;;;6290765;22;20779;-90
2021/07/17 09:00:34;;;;;;;19.13;15.57;;;19.70;99.90;;;;;;6268785;22;20580;-88
2021/07/17 09:03:04;;;;;;;21.20;16.20;;;19.90;99.90;;;;;;6295563;22;21469;-92
2021/07/17 09:05:33;;;;;;;18.03;16.13;;;19.80;99.90;;;;;;6296396;22;20403;-94
2021/07/17 09:07:59;;;;;;;19.17;16.23;;;19.30;99.90;;;;;;6297341;22;20396;-93
2021/07/17 09:10:33;;;;;;;18.40;16.60;;;19.00;99.90;;;;;;6301165;22;20383;-90
2021/07/17 09:13:14;;;;;;;18.57;16.47;;;19.10;99.90;;;;;;6300682;22;20415;-88
2021/07/17 09:15:47;;;;;;;17.50;15.70;;;19.10;99.90;;;;;;6328628;22;20484;-87
2021/07/17 09:18:15;;;;;;;18.10;16.10;;;19.20;99.90;;;;;;6300474;22;20397;-88
2021/07/17 09:23:08;;;;;;;27.97;18.47;;;18.70;99.90;;;;;;6295061;22;20546;-86
2021/07/17 09:25:36;;;;;;;20.03;16.77;;;18.80;99.90;;;;;;6298514;22;20157;-85
2021/07/17 09:28:26;;;;;;;19.37;16.07;;;19.10;99.90;;;;;;6265871;22;20384;-86
2021/07/17 09:30:55;;;;;;;19.50;16.10;;;19.60;99.90;;;;;;6268397;22;20406;-87
2021/07/17 09:33:22;;;;;;;20.87;16.47;;;19.80;99.90;;;;;;6296519;22;20412;-89
2021/07/17 09:35:49;;;;;;;20.57;16.27;;;19.40;99.90;;;;;;6267579;22;20928;-88
2021/07/17 09:38:17;;;;;;;21.00;16.73;;;19.00;99.90;;;;;;6267523;22;20253;-88
2021/07/17 09:41:03;;;;;;;19.33;17.20;;;18.90;99.90;;;;;;6297532;22;20850;-89
2021/07/17 09:43:43;;;;;;;22.73;18.90;;;18.60;99.90;;;;;;6297325;22;20838;-89
2021/07/17 09:46:24;;;;;;;21.10;18.83;;;18.60;99.90;;;;;;6270196;22;20403;-88
2021/07/17 09:48:55;;;;;;;22.20;17.57;;;18.70;99.90;;;;;;6295241;22;20801;-91
2021/07/17 09:51:33;;;;;;;23.03;17.70;;;18.70;99.90;;;;;;6271155;22;20715;-90
2021/07/17 09:54:08;;;;;;;21.97;18.50;;;19.00;99.90;;;;;;6294576;22;20428;-89
2021/07/17 09:57:01;;;;;;;21.57;18.00;;;19.10;99.90;;;;;;6298052;22;20435;-89
2021/07/17 09:59:26;;;;;;;22.10;17.93;;;19.20;99.90;;;;;;6273199;22;20395;-89
2021/07/17 10:02:28;;;;;;;23.90;19.43;;;19.10;99.90;;;;;;6299302;22;20703;-88
2021/07/17 10:04:54;;;;;;;21.13;17.80;;;19.20;99.90;;;;;;6272151;22;20434;-88
2021/07/17 10:07:20;;;;;;;22.98;19.90;;;19.40;99.90;;;;;;6266992;22;20381;-93
2021/07/17 10:13:34;;;;;;;23.40;19.80;;;19.60;99.90;;;;;;6220093;23;20383;-95
2021/07/17 10:16:19;;;;;;;33.30;21.40;;;19.30;99.90;;;;;;6209269;22;20857;-93
2021/07/17 10:18:46;;;;;;;24.60;20.50;;;19.40;99.90;;;;;;6265959;22;20408;-83
2021/07/17 10:21:12;;;;;;;27.00;20.10;;;19.60;99.90;;;;;;6294428;22;20721;-85
2021/07/17 10:23:52;;;;;;;24.23;19.80;;;19.60;99.90;;;;;;6271667;22;20412;-95
2021/07/17 10:26:28;;;;;;;24.53;18.47;;;19.90;99.90;;;;;;6271251;22;20399;-94
2021/07/17 10:29:18;;;;;;;23.73;19.80;;;20.20;99.90;;;;;;6273291;22;20404;-93
2021/07/17 10:31:46;;;;;;;22.03;18.33;;;20.20;99.90;;;;;;6278522;22;20424;-94
2021/07/17 10:34:12;;;;;;;24.23;19.30;;;20.20;99.90;;;;;;6269494;22;20501;-91
2021/07/17 10:36:58;;;;;;;26.27;19.00;;;20.00;99.90;;;;;;6268000;22;20391;-92
2021/07/17 10:42:22;;;;;;;22.50;18.87;;;19.40;99.90;;;;;;6297568;22;20842;-88
2021/07/17 10:44:50;;;;;;;21.73;19.40;;;19.30;99.90;;;;;;6269873;22;20388;-87
2021/07/17 10:47:17;;;;;;;21.70;17.83;;;19.30;99.90;;;;;;6269696;22;20392;-89
2021/07/17 10:49:50;;;;;;;21.70;18.20;;;19.40;99.90;;;;;;6294900;22;20372;-88
2021/07/17 10:52:46;;;;;;;22.03;17.77;;;19.40;99.90;;;;;;6269007;22;20419;-90
2021/07/17 10:55:25;;;;;;;21.00;17.57;;;19.70;99.90;;;;;;6298865;22;20931;-93
2021/07/17 10:57:52;;;;;;;21.27;17.53;;;20.30;99.90;;;;;;6270435;22;20399;-92
2021/07/17 11:00:53;;;;;;;19.33;16.93;;;20.50;99.90;;;;;;6271775;22;20752;-89
2021/07/17 11:07:32;;;;;;;17.00;15.00;;;21.10;99.90;;;;;;6264069;22;20384;-88
2021/07/17 11:13:34;;;;;;;19.73;15.87;;;22.10;99.90;;;;;;6202303;23;20433;-87
2021/07/17 11:20:04;;;;;;;;;;;;;;;;;;;;;
2021/07/17 11:23:04;;;;;;;18.63;16.73;;;20.90;99.90;;;;;;6291823;22;20467;-88
2021/07/17 11:25:36;;;;;;;23.13;16.93;;;20.40;99.90;;;;;;6261291;22;20425;-88
2021/07/17 13:56:27;;;;;;;20.30;18.30;;;21.60;99.90;;;;;;6294286;22;20944;-88
2021/07/17 14:02:22;;;;;;;17.67;15.93;;;21.90;99.90;;;;;;6326976;22;20437;-89
2021/07/17 14:07:49;;;;;;;20.07;17.17;;;21.50;99.90;;;;;;6325165;22;20654;-89
2021/07/17 14:10:41;;;;;;;18.73;16.87;;;21.80;99.90;;;;;;6323466;22;20393;-90
2021/07/17 14:17:29;;;;;;;20.20;18.13;;;21.50;99.90;;;;;;6265749;22;20425;-88
2021/07/17 14:23:03;;;;;;;20.37;18.30;;;21.40;99.90;;;;;;6230048;22;20888;-88
2021/07/17 14:26:02;;;;;;;21.17;18.93;;;21.10;99.90;;;;;;6292542;22;20391;-89
2021/07/17 14:28:38;;;;;;;19.93;18.03;;;21.10;99.90;;;;;;6228432;22;20772;-89
2021/07/17 14:31:37;;;;;;;20.17;18.07;;;20.90;99.90;;;;;;6297571;22;20720;-90
2021/07/17 14:34:04;;;;;;;18.87;17.10;;;20.90;99.90;;;;;;6296174;22;20904;-89
2021/07/17 14:36:33;;;;;;;22.40;18.23;;;20.80;99.90;;;;;;6293529;22;20749;-89
2021/07/17 14:42:39;;;;;;;21.67;17.93;;;20.70;99.90;;;;;;6319098;22;20440;-89
2021/07/17 14:49:14;;;;;;;17.97;16.37;;;20.70;99.90;;;;;;6322318;22;20678;-89
2021/07/17 15:33:06;;;;;;;17.07;15.30;;;21.10;99.90;;;;;;6300241;22;20497;-86
2021/07/17 15:35:46;;;;;;;17.23;15.60;;;21.30;99.90;;;;;;6300708;22;20435;-87
2021/07/17 15:38:13;;;;;;;16.80;15.30;;;21.60;99.90;;;;;;6271464;22;20388;-86
2021/07/17 15:40:44;;;;;;;18.03;16.30;;;21.60;99.90;;;;;;6271450;22;20759;-90
2021/07/17 15:43:13;;;;;;;19.10;17.10;;;21.40;99.90;;;;;;6301570;22;20384;-93
2021/07/17 15:46:04;;;;;;;19.27;17.47;;;21.20;99.90;;;;;;6270776;22;20407;-89
2021/07/17 15:48:31;;;;;;;19.57;17.53;;;21.00;99.90;;;;;;6270440;22;20399;-91
2021/07/17 15:50:59;;;;;;;18.23;16.17;;;21.00;99.90;;;;;;6271776;22;20453;-92
2021/07/17 15:53:27;;;;;;;17.83;16.03;;;21.20;99.90;;;;;;6271425;22;20400;-91
2021/07/17 15:55:53;;;;;;;19.60;17.70;;;21.60;99.90;;;;;;6270246;22;20439;-89
2021/07/17 15:58:51;;;;;;;18.30;16.10;;;21.80;99.90;;;;;;6270333;22;20424;-94
2021/07/17 16:02:06;;;;;;;16.67;15.07;;;21.90;99.90;;;;;;6265162;22;20435;-95
